Garrison, Minnesota
Current Conditions -  °F | °C
As of 11:53 PM on Tuesday 25 Nov 2014 (Local Time) from KBRD Reporting Station
Overcast Overcast  
Wind Chill: 11°   Ceiling: 4300
Heat Index: 19°   Visibility: 10mi
Dew Point: 11°   Wind: 6mph
Humidity: 71%   Direction: 70°ENE
Pressure: 30.03"   Gusts: NA
Location:  46.29°N, 93.83°W
Report Text: KBRD 260553Z AUTO 07005KT 10SM OVC043 M07/M12 A3003 RMK AO2 SLP193 T10721117 11072 21094 410721161 51012
Loading
Personal Weather Stations






























Interactive Weather Map New forecast layout! Learn more

10-Day Weather Forecast

Advertisements
Track Severe Weather on mobile